createdAt,value
2017-11-22T00:02:20.125Z,74.43
2017-11-22T00:04:47.910Z,81.10
2017-11-22T00:07:16.518Z,84.25
2017-11-22T00:09:45.047Z,78.93
2017-11-22T00:12:12.835Z,81.90
2017-11-22T00:14:40.665Z,79.07
2017-11-22T00:17:08.434Z,68.18
2017-11-22T00:19:36.210Z,76.15
2017-11-22T00:22:04.041Z,85.20
2017-11-22T00:24:31.817Z,78.37
2017-11-22T00:26:59.578Z,93.03
2017-11-22T00:29:27.387Z,89.87
2017-11-22T00:31:55.916Z,79.72
2017-11-22T00:34:23.659Z,89.03
2017-11-22T00:36:51.475Z,85.18
2017-11-22T00:39:19.282Z,85.90
2017-11-22T00:41:47.041Z,85.25
2017-11-22T00:44:14.846Z,75.78
2017-11-22T00:46:42.595Z,66.60
2017-11-22T00:49:10.362Z,76.93
2017-11-22T00:51:38.184Z,74.30
2017-11-22T00:54:05.940Z,85.62
2017-11-22T00:56:34.459Z,74.93
2017-11-22T00:59:02.267Z,62.30
2017-11-22T01:01:30.801Z,67.85
2017-11-22T01:03:58.566Z,67.87
2017-11-22T01:06:26.368Z,74.60
2017-11-22T01:08:54.879Z,66.18
2017-11-22T01:11:22.623Z,71.90
2017-11-22T01:13:51.196Z,78.10
2017-11-22T01:16:19.718Z,70.37
2017-11-22T01:18:47.464Z,75.53
2017-11-22T01:21:15.575Z,74.37
2017-11-22T01:23:43.326Z,62.35
2017-11-22T01:26:11.092Z,57.40
2017-11-22T01:28:38.905Z,64.50
2017-11-22T01:31:06.671Z,77.35
2017-11-22T01:33:34.430Z,64.55
2017-11-22T01:36:02.236Z,82.93
2017-11-22T01:38:30.000Z,78.47
2017-11-22T01:40:57.754Z,80.85
2017-11-22T01:43:25.563Z,85.40
2017-11-22T01:45:53.323Z,64.62
2017-11-22T01:48:21.856Z,75.12
2017-11-22T01:50:49.667Z,69.90
2017-11-22T01:53:18.188Z,71.65
2017-11-22T01:55:45.946Z,71.00
2017-11-22T01:58:13.756Z,73.80
2017-11-22T02:00:48.311Z,67.25
2017-11-22T02:03:19.012Z,64.05
2017-11-22T02:05:46.763Z,63.35
2017-11-22T02:08:14.511Z,63.05
2017-11-22T02:10:42.314Z,72.45
2017-11-22T02:13:10.822Z,65.30
2017-11-22T02:15:38.570Z,63.03
2017-11-22T02:18:06.379Z,61.67
2017-11-22T02:20:34.127Z,71.60
2017-11-22T02:23:01.875Z,68.62
2017-11-22T02:25:29.680Z,62.97
2017-11-22T02:27:57.453Z,58.35
2017-11-22T02:30:25.991Z,57.22
2017-11-22T02:32:53.809Z,61.63
2017-11-22T02:35:22.333Z,59.58
2017-11-22T02:37:50.098Z,62.38
2017-11-22T02:40:17.921Z,61.60
2017-11-22T02:42:45.676Z,61.47
2017-11-22T02:45:14.213Z,66.72
2017-11-22T02:47:42.033Z,58.50
2017-11-22T02:50:09.804Z,52.70
2017-11-22T02:52:37.584Z,60.33
2017-11-22T02:55:06.181Z,58.55
2017-11-22T02:57:33.946Z,57.40
2017-11-22T03:00:01.700Z,60.83
2017-11-22T03:02:29.510Z,59.13
2017-11-22T03:04:58.025Z,62.38
2017-11-22T03:07:25.783Z,65.03
2017-11-22T03:09:53.591Z,59.38
2017-11-22T03:12:21.336Z,63.72
2017-11-22T03:14:49.085Z,50.55
2017-11-22T03:17:16.888Z,60.00
2017-11-22T03:19:45.399Z,53.00
2017-11-22T03:22:13.156Z,61.25
2017-11-22T03:24:40.988Z,55.85
2017-11-22T03:27:09.499Z,61.75
2017-11-22T03:29:37.265Z,53.45
2017-11-22T03:32:05.066Z,49.28
2017-11-22T03:34:32.853Z,57.65
2017-11-22T03:37:01.423Z,57.25
2017-11-22T03:39:30.012Z,52.53
2017-11-22T03:41:58.523Z,49.70
2017-11-22T03:44:26.300Z,53.70
2017-11-22T03:46:54.104Z,54.25
2017-11-22T03:49:21.851Z,57.72
2017-11-22T03:51:56.176Z,54.30
2017-11-22T03:54:23.952Z,50.90
2017-11-22T03:56:52.474Z,49.00
2017-11-22T03:59:20.292Z,56.35
2017-11-22T04:01:48.043Z,54.25
2017-11-22T04:04:20.879Z,57.05
2017-11-22T04:06:48.663Z,48.78
2017-11-22T04:09:16.420Z,63.65
2017-11-22T04:11:44.252Z,47.65
2017-11-22T04:14:12.003Z,54.35
2017-11-22T04:16:40.519Z,58.65
2017-11-22T04:19:13.919Z,60.40
2017-11-22T04:21:41.668Z,56.00
2017-11-22T04:24:09.412Z,56.78
2017-11-22T04:26:37.212Z,50.63
2017-11-22T04:29:04.955Z,50.60
2017-11-22T04:31:32.701Z,48.47
2017-11-22T04:34:00.503Z,44.58
2017-11-22T04:36:28.244Z,52.22
2017-11-22T04:38:55.999Z,44.63
2017-11-22T04:41:23.804Z,42.62
2017-11-22T04:43:51.565Z,51.92
2017-11-22T04:46:19.311Z,47.80
2017-11-22T04:48:47.131Z,42.03
2017-11-22T04:51:14.890Z,41.53
2017-11-22T04:53:42.652Z,40.67
2017-11-22T04:56:10.462Z,44.35
2017-11-22T04:58:38.222Z,42.62
2017-11-22T05:01:05.962Z,38.00
2017-11-22T05:03:33.762Z,41.80
2017-11-22T05:06:01.515Z,45.42
2017-11-22T05:08:29.275Z,41.13
2017-11-22T05:10:57.092Z,42.65
2017-11-22T05:13:24.844Z,37.00
2017-11-22T05:15:52.608Z,44.67
2017-11-22T05:18:20.428Z,43.20
2017-11-22T05:20:48.177Z,38.72
2017-11-22T05:23:15.927Z,34.17
2017-11-22T05:25:43.733Z,42.00
2017-11-22T05:28:12.263Z,37.08
2017-11-22T05:30:40.016Z,34.72
2017-11-22T05:33:07.820Z,36.20
2017-11-22T05:35:35.573Z,36.50
2017-11-22T05:38:03.319Z,37.03
2017-11-22T05:40:31.123Z,36.40
2017-11-22T05:42:59.636Z,38.53
2017-11-22T05:45:27.397Z,33.78
2017-11-22T05:47:55.211Z,32.00
2017-11-22T05:50:22.981Z,36.80
2017-11-22T05:52:51.498Z,33.40
2017-11-22T05:55:19.307Z,34.55
2017-11-22T05:57:47.069Z,53.08
2017-11-22T06:00:14.830Z,49.83
2017-11-22T06:02:42.635Z,34.42
2017-11-22T06:05:10.383Z,36.60
2017-11-22T06:07:38.149Z,45.97
2017-11-22T06:10:05.951Z,32.10
2017-11-22T06:12:33.696Z,33.03
2017-11-22T06:15:01.436Z,31.12
2017-11-22T06:17:29.268Z,32.15
2017-11-22T06:19:57.031Z,47.40
2017-11-22T06:22:24.785Z,30.30
2017-11-22T06:24:52.588Z,34.53
2017-11-22T06:27:20.356Z,38.65
2017-11-22T06:29:50.048Z,33.30
2017-11-22T06:32:17.856Z,33.90
2017-11-22T06:34:45.610Z,38.45
2017-11-22T06:37:13.364Z,37.65
2017-11-22T06:39:41.167Z,32.13
2017-11-22T06:42:08.912Z,29.10
2017-11-22T06:44:36.660Z,32.38
2017-11-22T06:47:04.459Z,72.97
2017-11-22T06:49:32.205Z,41.25
2017-11-22T06:51:59.948Z,32.63
2017-11-22T06:54:27.755Z,42.22
2017-11-22T06:56:56.276Z,27.52
2017-11-22T06:59:24.023Z,26.35
2017-11-22T07:01:53.606Z,27.40
2017-11-22T07:04:22.116Z,25.42
2017-11-22T07:06:49.871Z,25.48
2017-11-22T07:09:17.676Z,22.52
2017-11-22T07:11:45.442Z,21.65
2017-11-22T07:14:13.213Z,24.08
2017-11-22T07:16:46.827Z,24.75
2017-11-22T07:19:21.855Z,19.05
2017-11-22T07:21:50.419Z,24.33
2017-11-22T07:24:18.169Z,21.37
2017-11-22T07:26:45.915Z,20.00
2017-11-22T07:29:13.717Z,26.17
2017-11-22T07:31:41.464Z,18.35
2017-11-22T07:34:09.208Z,22.70
2017-11-22T07:36:42.704Z,23.35
2017-11-22T07:39:10.454Z,21.20
2017-11-22T07:41:38.219Z,26.58
2017-11-22T07:44:06.098Z,22.65
2017-11-22T07:46:33.852Z,34.15
2017-11-22T07:49:01.596Z,22.62
2017-11-22T07:51:35.123Z,25.10
2017-11-22T07:54:02.880Z,18.35
2017-11-22T07:56:37.316Z,16.50
2017-11-22T07:59:05.981Z,24.40
2017-11-22T08:01:33.736Z,21.27
2017-11-22T08:04:08.005Z,20.23
2017-11-22T08:06:35.755Z,24.73
2017-11-22T08:09:04.278Z,27.73
2017-11-22T08:11:32.091Z,21.67
2017-11-22T08:14:00.604Z,26.45
2017-11-22T08:16:28.355Z,23.05
2017-11-22T08:18:56.151Z,25.33
2017-11-22T08:21:23.930Z,23.95
2017-11-22T08:23:51.674Z,21.17
2017-11-22T08:26:20.247Z,19.08
2017-11-22T08:28:48.005Z,23.92
2017-11-22T08:31:15.756Z,19.87
2017-11-22T08:33:43.555Z,19.48
2017-11-22T08:36:11.294Z,19.67
2017-11-22T08:38:39.053Z,18.67
2017-11-22T08:41:06.851Z,23.25
2017-11-22T08:43:34.616Z,24.63
2017-11-22T08:46:02.361Z,20.00
2017-11-22T08:48:30.160Z,20.83
2017-11-22T08:50:58.672Z,20.05
2017-11-22T08:53:26.424Z,20.98
2017-11-22T08:55:59.924Z,20.25
2017-11-22T08:58:27.667Z,19.65
2017-11-22T09:00:55.412Z,21.77
2017-11-22T09:03:23.976Z,18.25
2017-11-22T09:05:57.316Z,19.02
2017-11-22T09:08:25.115Z,21.42
2017-11-22T09:10:52.876Z,16.58
2017-11-22T09:13:28.405Z,23.17
2017-11-22T09:15:56.142Z,20.20
2017-11-22T09:18:29.620Z,17.02
2017-11-22T09:20:57.386Z,15.30
2017-11-22T09:23:25.135Z,18.20
2017-11-22T09:25:53.698Z,24.17
2017-11-22T09:28:21.443Z,17.58
2017-11-22T09:30:53.987Z,22.02
2017-11-22T09:33:21.768Z,19.23
2017-11-22T09:35:49.510Z,24.48
2017-11-22T09:38:17.310Z,37.47
2017-11-22T09:40:45.053Z,54.92
2017-11-22T09:43:12.802Z,364.45
2017-11-22T09:45:40.619Z,232.82
2017-11-22T09:48:09.138Z,365.08
2017-11-22T09:50:36.887Z,189.35
2017-11-22T09:53:04.693Z,72.47
2017-11-22T09:55:32.429Z,66.62
2017-11-22T09:58:00.175Z,47.65
2017-11-22T10:00:27.976Z,27.00
2017-11-22T10:02:55.724Z,41.47
2017-11-22T10:05:23.470Z,36.95
2017-11-22T10:07:51.286Z,38.25
2017-11-22T10:10:19.816Z,38.63
2017-11-22T10:12:47.563Z,38.22
2017-11-22T10:15:15.356Z,40.08
2017-11-22T10:17:43.112Z,34.63
2017-11-22T10:20:16.520Z,43.40
2017-11-22T10:22:46.180Z,34.47
2017-11-22T10:25:22.003Z,30.62
2017-11-22T10:28:11.290Z,31.55
2017-11-22T10:30:39.135Z,29.58
2017-11-22T10:33:13.187Z,17.77
2017-11-22T10:35:41.003Z,17.05
2017-11-22T10:38:08.773Z,16.25
2017-11-22T10:40:37.298Z,20.20
2017-11-22T10:43:05.099Z,19.60
2017-11-22T10:45:32.858Z,28.50
2017-11-22T10:48:00.617Z,18.25
2017-11-22T10:50:28.425Z,15.35
2017-11-22T10:52:56.171Z,19.87
2017-11-22T10:55:24.695Z,21.45
2017-11-22T10:57:52.519Z,23.70
2017-11-22T11:00:20.291Z,23.92
2017-11-22T11:02:48.043Z,22.73
2017-11-22T11:05:15.854Z,16.75
2017-11-22T11:07:43.600Z,17.75
2017-11-22T11:10:11.360Z,22.30
2017-11-22T11:12:39.164Z,15.85
2017-11-22T11:15:06.911Z,20.08
2017-11-22T11:17:34.655Z,15.02
2017-11-22T11:20:02.458Z,16.77
2017-11-22T11:22:30.974Z,18.73
2017-11-22T11:24:58.727Z,15.35
2017-11-22T11:27:26.532Z,20.60
2017-11-22T11:29:54.280Z,17.65
2017-11-22T11:32:22.038Z,21.23
2017-11-22T11:34:49.862Z,22.25
2017-11-22T11:37:17.620Z,21.23
2017-11-22T11:39:46.134Z,21.80
2017-11-22T11:42:13.974Z,23.38
2017-11-22T11:44:41.729Z,30.75
2017-11-22T11:47:09.478Z,21.73
2017-11-22T11:49:38.043Z,21.25
2017-11-22T11:52:05.799Z,23.80
2017-11-22T11:54:33.550Z,20.20
2017-11-22T11:57:01.346Z,19.05
2017-11-22T11:59:29.134Z,18.00
2017-11-22T12:01:56.886Z,18.08
2017-11-22T12:04:24.690Z,14.05
2017-11-22T12:06:52.433Z,18.25
2017-11-22T12:09:20.191Z,13.93
2017-11-22T12:11:48.007Z,13.82
2017-11-22T12:14:16.518Z,15.07
2017-11-22T12:16:44.273Z,18.30
2017-11-22T12:19:12.115Z,14.45
2017-11-22T12:21:40.635Z,14.80
2017-11-22T12:24:08.383Z,16.55
2017-11-22T12:26:36.189Z,16.42
2017-11-22T12:29:03.949Z,14.00
2017-11-22T12:31:31.694Z,17.70
2017-11-22T12:33:59.494Z,18.75
2017-11-22T12:36:27.245Z,16.02
2017-11-22T12:38:54.998Z,17.95
2017-11-22T12:41:22.800Z,16.98
2017-11-22T12:43:51.310Z,15.40
2017-11-22T12:46:19.055Z,19.50
2017-11-22T12:48:46.860Z,22.65
2017-11-22T12:51:14.640Z,24.67
2017-11-22T12:53:42.386Z,26.10
2017-11-22T12:56:10.196Z,22.80
2017-11-22T12:58:37.957Z,25.35
2017-11-22T13:01:05.721Z,28.98
2017-11-22T13:03:33.532Z,24.87
2017-11-22T13:06:01.295Z,16.87
2017-11-22T13:08:29.825Z,16.15
2017-11-22T13:10:58.388Z,21.75
2017-11-22T13:13:26.902Z,16.95
2017-11-22T13:15:54.657Z,16.42
2017-11-22T13:18:22.461Z,17.83
2017-11-22T13:20:50.223Z,20.60
2017-11-22T13:23:17.998Z,14.93
2017-11-22T13:25:45.801Z,19.73
2017-11-22T13:28:13.595Z,17.65
2017-11-22T13:30:42.108Z,16.75
2017-11-22T13:33:09.909Z,26.87
2017-11-22T13:35:37.658Z,23.95
2017-11-22T13:38:05.437Z,21.42
2017-11-22T13:40:33.262Z,21.67
2017-11-22T13:43:01.790Z,17.52
2017-11-22T13:45:29.551Z,18.25
2017-11-22T13:47:57.362Z,20.35
2017-11-22T13:50:25.143Z,21.02
2017-11-22T13:52:53.665Z,19.80
2017-11-22T13:55:21.494Z,18.98
2017-11-22T13:57:49.260Z,26.77
2017-11-22T14:00:17.036Z,29.15
2017-11-22T14:02:44.863Z,25.45
2017-11-22T14:05:13.395Z,30.02
2017-11-22T14:07:41.160Z,27.77
2017-11-22T14:10:09.259Z,26.40
2017-11-22T14:12:37.033Z,21.75
2017-11-22T14:15:05.563Z,34.80
2017-11-22T14:17:33.396Z,24.70
2017-11-22T14:20:01.175Z,33.35
2017-11-22T14:22:28.952Z,47.78
2017-11-22T14:24:56.795Z,35.50
2017-11-22T14:27:24.552Z,27.45
2017-11-22T14:29:52.316Z,34.97
2017-11-22T14:32:20.126Z,28.75
2017-11-22T14:34:47.918Z,35.83
2017-11-22T14:37:16.459Z,29.33
2017-11-22T14:39:44.274Z,28.42
2017-11-22T14:42:12.049Z,30.92
2017-11-22T14:44:39.814Z,35.72
2017-11-22T14:47:07.633Z,29.75
2017-11-22T14:49:35.399Z,24.70
2017-11-22T14:52:03.943Z,30.40
2017-11-22T14:54:31.760Z,37.10
2017-11-22T14:56:59.522Z,42.50
2017-11-22T14:59:27.290Z,37.88
2017-11-22T15:01:55.107Z,43.28
2017-11-22T15:04:22.873Z,51.47
2017-11-22T15:06:50.660Z,48.15
2017-11-22T15:09:19.236Z,45.90
2017-11-22T15:11:47.773Z,40.20
2017-11-22T15:14:15.546Z,34.15
2017-11-22T15:16:43.398Z,38.50
2017-11-22T15:19:11.151Z,31.98
2017-11-22T15:21:38.917Z,30.58
2017-11-22T15:24:06.763Z,32.00
2017-11-22T15:26:34.575Z,26.12
2017-11-22T15:29:02.336Z,27.48
2017-11-22T15:31:30.151Z,31.20
2017-11-22T15:33:57.907Z,25.50
2017-11-22T15:36:25.664Z,28.85
2017-11-22T15:38:53.515Z,33.63
2017-11-22T15:41:21.265Z,33.97
2017-11-22T15:43:49.800Z,34.28
2017-11-22T15:46:17.612Z,35.17
2017-11-22T15:48:46.157Z,32.95
2017-11-22T15:51:13.910Z,38.72
2017-11-22T15:53:41.718Z,32.45
2017-11-22T15:56:10.245Z,35.83
2017-11-22T15:58:38.020Z,33.15
2017-11-22T16:01:05.850Z,30.00
2017-11-22T16:03:33.624Z,32.78
2017-11-22T16:06:01.376Z,31.95
2017-11-22T16:08:29.187Z,31.98
2017-11-22T16:10:56.959Z,38.33
2017-11-22T16:13:25.503Z,38.50
2017-11-22T16:15:54.083Z,35.08
2017-11-22T16:18:21.844Z,34.75
2017-11-22T16:20:49.606Z,39.03
2017-11-22T16:23:17.489Z,39.05
2017-11-22T16:25:45.243Z,35.58
2017-11-22T16:28:13.251Z,35.65
2017-11-22T16:30:41.077Z,31.48
2017-11-22T16:33:08.840Z,36.10
2017-11-22T16:35:37.415Z,36.20
2017-11-22T16:38:05.240Z,31.20
2017-11-22T16:40:33.046Z,34.05
2017-11-22T16:43:00.855Z,29.87
2017-11-22T16:45:28.691Z,31.90
2017-11-22T16:47:58.287Z,27.13
2017-11-22T16:50:26.043Z,29.35
2017-11-22T16:52:53.859Z,27.45
2017-11-22T16:55:21.632Z,34.55
2017-11-22T16:57:49.420Z,22.83
2017-11-22T17:00:17.260Z,27.37
2017-11-22T17:02:45.010Z,28.10
2017-11-22T17:05:12.757Z,25.15
2017-11-22T17:07:40.732Z,28.80
2017-11-22T17:10:08.505Z,32.08
2017-11-22T17:12:36.302Z,34.53
2017-11-22T17:15:04.135Z,31.83
2017-11-22T17:17:31.897Z,32.58
2017-11-22T17:20:01.335Z,29.12
2017-11-22T17:22:29.165Z,32.05
2017-11-22T17:24:57.690Z,32.00
2017-11-22T17:27:26.257Z,30.88
2017-11-22T17:29:54.114Z,34.38
2017-11-22T17:32:22.045Z,30.20
2017-11-22T17:34:49.836Z,29.90
2017-11-22T17:37:17.651Z,30.95
2017-11-22T17:39:46.104Z,35.75
2017-11-22T17:42:14.647Z,45.25
2017-11-22T17:44:43.387Z,34.97
2017-11-22T17:47:11.921Z,32.53
2017-11-22T17:49:39.672Z,35.35
2017-11-22T17:52:08.249Z,34.70
2017-11-22T17:54:36.035Z,36.25
2017-11-22T17:57:03.800Z,38.53
2017-11-22T17:59:31.619Z,33.70
2017-11-22T18:01:59.432Z,28.65
2017-11-22T18:04:27.975Z,28.38
2017-11-22T18:06:55.782Z,31.95
2017-11-22T18:09:24.339Z,50.15
2017-11-22T18:11:52.086Z,43.13
2017-11-22T18:14:19.891Z,55.03
2017-11-22T18:16:48.418Z,50.70
2017-11-22T18:19:16.168Z,43.85
2017-11-22T18:21:43.984Z,37.53
2017-11-22T18:24:11.747Z,33.65
2017-11-22T18:26:39.508Z,31.85
2017-11-22T18:29:07.323Z,35.53
2017-11-22T18:31:35.083Z,36.50
2017-11-22T18:34:02.847Z,34.60
2017-11-22T18:36:30.666Z,42.58
2017-11-22T18:38:59.201Z,35.83
2017-11-22T18:41:27.068Z,34.55
2017-11-22T18:43:54.884Z,36.40
2017-11-22T18:46:23.418Z,33.90
2017-11-22T18:48:51.945Z,33.28
2017-11-22T18:51:20.518Z,34.58
2017-11-22T18:53:49.047Z,38.95
2017-11-22T18:56:16.801Z,39.67
2017-11-22T18:58:44.618Z,40.17
2017-11-22T19:01:13.153Z,39.55
2017-11-22T19:03:41.681Z,37.20
2017-11-22T19:06:10.277Z,39.40
2017-11-22T19:08:38.036Z,40.58
2017-11-22T19:11:05.787Z,45.67
2017-11-22T19:13:34.371Z,43.55
2017-11-22T19:16:02.894Z,42.20
2017-11-22T19:18:30.658Z,44.40
2017-11-22T19:20:59.443Z,36.95
2017-11-22T19:23:27.997Z,43.42
2017-11-22T19:25:55.801Z,42.60
2017-11-22T19:28:23.610Z,119.57
2017-11-22T19:30:51.363Z,62.38
2017-11-22T19:33:19.884Z,51.13
2017-11-22T19:35:47.696Z,38.85
2017-11-22T19:38:16.208Z,42.53
2017-11-22T19:40:43.962Z,47.72
2017-11-22T19:43:11.777Z,48.15
2017-11-22T19:45:39.629Z,49.50
2017-11-22T19:48:07.480Z,61.03
2017-11-22T19:50:35.300Z,44.13
2017-11-22T19:53:03.855Z,78.55
2017-11-22T19:55:31.616Z,75.07
2017-11-22T19:57:59.417Z,57.30
2017-11-22T20:00:27.196Z,51.63
2017-11-22T20:02:54.976Z,69.47
2017-11-22T20:05:22.786Z,55.78
2017-11-22T20:07:51.564Z,49.75
2017-11-22T20:10:20.161Z,72.75
2017-11-22T20:12:48.824Z,69.95
2017-11-22T20:15:16.616Z,61.20
2017-11-22T20:17:44.514Z,64.55
2017-11-22T20:20:12.401Z,64.37
2017-11-22T20:22:40.152Z,68.22
2017-11-22T20:25:07.906Z,72.12
2017-11-22T20:27:35.712Z,69.53
2017-11-22T20:30:04.242Z,76.57
2017-11-22T20:32:31.999Z,82.62
2017-11-22T20:34:59.807Z,76.18
2017-11-22T20:37:27.602Z,68.90
2017-11-22T20:39:55.437Z,76.85
2017-11-22T20:42:24.191Z,77.07
2017-11-22T20:44:51.947Z,75.90
2017-11-22T20:47:19.796Z,86.78
2017-11-22T20:49:47.640Z,76.72
2017-11-22T20:52:15.409Z,77.07
2017-11-22T20:54:43.172Z,74.03
2017-11-22T20:57:10.982Z,72.95
2017-11-22T20:59:38.762Z,65.80
2017-11-22T21:02:07.272Z,66.47
2017-11-22T21:04:35.102Z,115.15
2017-11-22T21:07:03.698Z,99.32
2017-11-22T21:09:32.427Z,77.50
2017-11-22T21:12:00.256Z,74.43
2017-11-22T21:14:28.015Z,69.97
2017-11-22T21:16:55.786Z,71.57
2017-11-22T21:19:23.710Z,69.40
2017-11-22T21:21:51.494Z,68.60
2017-11-22T21:24:19.318Z,69.10
2017-11-22T21:26:47.288Z,85.80
2017-11-22T21:29:15.044Z,65.18
2017-11-22T21:31:42.791Z,79.37
2017-11-22T21:34:10.599Z,74.50
2017-11-22T21:36:39.109Z,84.78
2017-11-22T21:39:06.863Z,74.35
2017-11-22T21:41:34.680Z,61.40
2017-11-22T21:44:02.435Z,69.72
2017-11-22T21:46:30.195Z,61.95
2017-11-22T21:48:58.015Z,58.65
2017-11-22T21:51:25.777Z,74.55
2017-11-22T21:53:54.093Z,69.12
2017-11-22T21:56:21.892Z,63.40
2017-11-22T21:58:50.412Z,59.63
2017-11-22T22:01:18.160Z,60.97
2017-11-22T22:03:46.081Z,61.97
2017-11-22T22:06:13.923Z,61.70
2017-11-22T22:08:41.881Z,51.97
2017-11-22T22:11:10.314Z,59.85
2017-11-22T22:13:38.070Z,57.40
2017-11-22T22:16:06.588Z,60.85
2017-11-22T22:18:34.448Z,65.28
2017-11-22T22:21:02.211Z,56.30
2017-11-22T22:23:29.988Z,62.08
2017-11-22T22:25:57.811Z,59.67
2017-11-22T22:28:25.586Z,63.22
2017-11-22T22:30:54.583Z,57.08
2017-11-22T22:33:22.393Z,58.05
2017-11-22T22:35:50.136Z,52.75
2017-11-22T22:38:17.892Z,55.92
2017-11-22T22:40:45.704Z,59.05
2017-11-22T22:43:13.450Z,58.42
2017-11-22T22:45:41.965Z,56.17
2017-11-22T22:48:09.772Z,63.53
2017-11-22T22:50:37.526Z,55.53
2017-11-22T22:53:06.070Z,63.40
2017-11-22T22:55:33.902Z,55.20
2017-11-22T22:58:02.415Z,48.45
2017-11-22T23:00:30.159Z,55.25
2017-11-22T23:02:57.965Z,57.60
2017-11-22T23:05:25.713Z,56.50
2017-11-22T23:07:53.471Z,51.72
2017-11-22T23:10:21.272Z,53.28
2017-11-22T23:12:49.022Z,55.42
2017-11-22T23:15:16.778Z,46.28
2017-11-22T23:17:44.580Z,61.97
2017-11-22T23:20:13.099Z,51.65
2017-11-22T23:22:40.843Z,53.20
2017-11-22T23:25:08.647Z,48.45
2017-11-22T23:27:36.423Z,48.97
2017-11-22T23:30:04.957Z,53.22
2017-11-22T23:32:32.762Z,54.13
2017-11-22T23:35:00.518Z,56.45
2017-11-22T23:37:28.277Z,50.67
2017-11-22T23:39:56.084Z,55.08
2017-11-22T23:42:23.857Z,48.95
2017-11-22T23:44:51.604Z,57.22
2017-11-22T23:47:19.426Z,47.85
2017-11-22T23:49:47.172Z,56.97
2017-11-22T23:52:14.918Z,52.78
2017-11-22T23:54:42.729Z,51.63
2017-11-22T23:57:11.258Z,49.03
2017-11-22T23:59:39.015Z,44.88
